Time;durP1;ratioP1;P1;durP2;ratioP2;P2;SDS_P1;SDS_P2;PMS_P1;PMS_P2;Temp;Humidity;BMP_temperature;BMP_pressure;BME280_temperature;BME280_humidity;BME280_pressure;Samples;Min_cycle;Max_cycle;Signal;HPM_P1;HPM_P2
2022/11/24 00:02:31;;;;;;;12.03;2.47;;;5.00;99.90;5.70;93254.00;;;;7398828;19;20144;-77
2022/11/24 00:04:58;;;;;;;12.90;2.83;;;4.90;99.90;5.70;93279.00;;;;7399531;19;20146;-79
2022/11/24 00:07:25;;;;;;;8.67;2.37;;;5.00;99.90;5.90;93279.00;;;;7399216;19;20146;-79
2022/11/24 00:09:59;;;;;;;11.77;2.20;;;5.10;99.90;5.90;93285.00;;;;7398692;19;20623;-79
2022/11/24 00:12:27;;;;;;;12.00;2.53;;;5.20;99.90;5.90;93260.00;;;;7399637;19;20137;-76
2022/11/24 00:14:54;;;;;;;13.23;2.37;;;5.20;99.90;5.90;93276.00;;;;7397352;19;20247;-77
2022/11/24 00:17:28;;;;;;;10.23;2.43;;;5.10;85.90;6.00;93284.00;;;;7399275;19;20161;-76
2022/11/24 00:19:55;;;;;;;21.87;2.80;;;5.20;8.20;6.00;93268.00;;;;7398237;19;20141;-76
2022/11/24 00:22:22;;;;;;;14.57;2.20;;;5.20;1.00;5.80;93287.00;;;;7397537;19;20192;-77
2022/11/24 00:25:01;;;;;;;10.77;2.27;;;5.10;1.00;5.50;93281.00;;;;7398666;19;20128;-77
2022/11/24 00:27:28;;;;;;;5.37;2.03;;;5.00;1.00;5.40;93279.00;;;;7399029;19;20503;-77
2022/11/24 00:30:03;;;;;;;9.73;2.40;;;4.90;58.90;5.30;93283.00;;;;7398781;19;20605;-77
2022/11/24 00:32:30;;;;;;;13.87;2.50;;;4.80;99.90;5.50;93296.00;;;;7398679;19;21015;-77
2022/11/24 00:34:57;;;;;;;12.97;2.40;;;4.80;99.90;5.50;93271.00;;;;7398022;19;20489;-78
2022/11/24 00:37:30;;;;;;;12.30;2.27;;;4.80;99.90;5.40;93292.00;;;;7398615;19;20530;-77
2022/11/24 00:39:57;;;;;;;13.17;3.00;;;4.80;99.90;5.50;93286.00;;;;7399768;19;20132;-78
2022/11/24 00:42:24;;;;;;;18.57;2.30;;;4.80;99.90;5.50;93299.00;;;;7398492;19;20474;-77
2022/11/24 00:44:57;;;;;;;14.53;2.40;;;4.70;99.90;5.60;93302.00;;;;7398358;19;20121;-77
2022/11/24 00:47:24;;;;;;;22.30;3.03;;;4.70;99.90;5.50;93309.00;;;;7399391;19;20125;-77
2022/11/24 00:49:51;;;;;;;11.60;2.53;;;4.80;99.90;5.50;93292.00;;;;7397285;19;20129;-77
2022/11/24 00:52:25;;;;;;;12.63;2.70;;;4.70;1.00;5.40;93304.00;;;;7397690;19;20145;-78
2022/11/24 00:54:52;;;;;;;11.33;2.23;;;4.70;1.00;5.40;93308.00;;;;7397533;19;20501;-77
2022/11/24 00:57:19;;;;;;;7.80;2.10;;;4.70;1.00;5.60;93315.00;;;;7397837;19;20161;-77
2022/11/24 00:59:53;;;;;;;13.20;2.47;;;4.70;1.00;5.30;93300.00;;;;7397089;19;20588;-78
2022/11/24 01:02:20;;;;;;;14.70;2.57;;;4.80;1.00;5.60;93310.00;;;;7398570;19;20148;-77
2022/11/24 01:04:47;;;;;;;11.77;2.33;;;4.80;1.00;5.90;93312.00;;;;7394801;19;20157;-77
2022/11/24 01:07:21;;;;;;;13.50;2.67;;;4.90;1.00;5.90;93305.00;;;;7395205;19;20646;-77
2022/11/24 01:09:48;;;;;;;11.83;2.23;;;5.00;1.00;5.80;93306.00;;;;7397493;19;20153;-78
2022/11/24 01:12:15;;;;;;;16.43;3.23;;;5.00;1.00;5.80;93277.00;;;;7397325;19;20612;-78
2022/11/24 01:14:49;;;;;;;10.53;2.53;;;5.00;99.90;5.70;93327.00;;;;7396235;19;20168;-77
2022/11/24 01:17:16;;;;;;;12.13;2.40;;;5.00;99.90;5.90;93312.00;;;;7398038;19;20639;-77
2022/11/24 01:19:46;;;;;;;10.53;2.27;;;5.00;99.90;5.80;93310.00;;;;7398331;19;20128;-78
2022/11/24 01:22:26;;;;;;;11.20;3.00;;;5.00;99.90;5.60;93324.00;;;;7396150;19;20184;-77
2022/11/24 01:24:53;;;;;;;12.23;2.60;;;4.90;99.90;5.60;93311.00;;;;7396821;19;20619;-77
2022/11/24 01:27:26;;;;;;;20.70;2.53;;;4.90;99.90;5.60;93316.00;;;;7398255;19;20580;-78
2022/11/24 01:29:53;;;;;;;8.57;1.90;;;4.90;99.90;5.70;93327.00;;;;7397545;19;20129;-78
2022/11/24 01:32:20;;;;;;;10.83;2.47;;;4.90;99.90;5.70;93336.00;;;;7396179;19;20143;-77
2022/11/24 01:34:53;;;;;;;9.20;2.00;;;4.80;99.90;5.70;93328.00;;;;7396915;19;20147;-77
2022/11/24 01:37:20;;;;;;;16.87;3.40;;;4.80;99.90;5.80;93350.00;;;;7397993;19;20125;-77
2022/11/24 01:39:47;;;;;;;20.53;3.00;;;4.90;71.00;5.80;93334.00;;;;7396707;19;20496;-77
2022/11/24 01:42:21;;;;;;;9.80;2.00;;;4.90;35.20;5.90;93342.00;;;;7397660;19;20468;-77
2022/11/24 01:45:11;;;;;;;10.43;2.70;;;5.00;16.20;5.80;93349.00;;;;7395687;19;20137;-77
2022/11/24 01:47:44;;;;;;;13.30;3.53;;;4.90;1.00;5.80;93327.00;;;;7395618;19;20248;-78
2022/11/24 01:50:15;;;;;;;12.47;2.37;;;4.90;1.00;5.60;93336.00;;;;7396568;19;20148;-77
2022/11/24 01:52:54;;;;;;;13.10;2.57;;;4.90;1.00;5.50;93346.00;;;;7396018;19;20163;-77
2022/11/24 01:55:36;;;;;;;12.07;2.50;;;4.70;1.00;5.10;93342.00;;;;7395877;19;20596;-77
2022/11/24 01:58:22;;;;;;;9.20;2.20;;;4.60;10.50;4.90;93354.00;;;;7397260;19;20448;-76
2022/11/24 02:00:56;;;;;;;12.83;2.30;;;4.30;99.90;5.10;93365.00;;;;7396034;19;20479;-75
2022/11/24 02:03:32;;;;;;;14.37;2.93;;;4.30;99.90;5.00;93355.00;;;;7395889;19;20612;-76
2022/11/24 02:06:12;;;;;;;14.20;2.83;;;4.30;99.90;5.00;93357.00;;;;7394789;19;20509;-75
2022/11/24 02:08:55;;;;;;;12.87;2.63;;;4.40;99.90;5.00;93358.00;;;;7396166;19;20136;-75
2022/11/24 02:11:37;;;;;;;12.67;2.43;;;4.30;99.90;4.90;93367.00;;;;7401684;19;20148;-77
2022/11/24 02:14:09;;;;;;;10.20;2.60;;;4.20;99.90;4.60;93350.00;;;;7401479;19;20200;-75
2022/11/24 02:16:49;;;;;;;11.63;2.43;;;4.10;99.90;4.70;93346.00;;;;7403324;19;20639;-76
2022/11/24 02:19:38;;;;;;;9.40;2.33;;;4.00;1.00;4.50;93357.00;;;;7402472;19;20144;-76
2022/11/24 02:22:42;;;;;;;10.40;2.30;;;3.90;1.00;4.50;93360.00;;;;7401928;19;20151;-76
2022/11/24 02:25:35;;;;;;;13.67;2.70;;;3.80;1.00;4.50;93348.00;;;;7403817;19;20188;-77
2022/11/24 02:28:16;;;;;;;14.93;2.97;;;3.90;1.00;4.30;93349.00;;;;7401635;19;20141;-76
2022/11/24 02:30:43;;;;;;;13.03;2.13;;;3.70;1.00;4.70;93357.00;;;;7403695;19;20636;-76
2022/11/24 02:33:19;;;;;;;15.30;3.00;;;3.80;99.90;4.70;93353.00;;;;7402518;19;20199;-77
2022/11/24 02:35:46;;;;;;;15.83;2.63;;;3.90;99.90;4.60;93348.00;;;;7403658;19;20129;-75
2022/11/24 02:38:14;;;;;;;11.13;2.37;;;3.90;99.90;4.50;93348.00;;;;7401409;19;20141;-76
2022/11/24 02:40:48;;;;;;;15.70;2.90;;;3.80;99.90;4.40;93346.00;;;;7401485;19;20140;-77
2022/11/24 02:43:22;;;;;;;10.13;2.10;;;3.80;99.90;4.20;93354.00;;;;7402013;19;20157;-76
2022/11/24 02:45:55;;;;;;;13.97;2.53;;;3.60;99.90;4.40;93354.00;;;;7400302;19;20599;-78
2022/11/24 02:48:23;;;;;;;15.70;3.00;;;3.60;99.90;4.40;93367.00;;;;7401234;19;20136;-76
2022/11/24 02:50:50;;;;;;;10.07;2.73;;;3.60;99.90;4.40;93358.00;;;;7401736;19;20140;-77
2022/11/24 02:53:23;;;;;;;19.27;2.97;;;3.60;99.90;4.60;93352.00;;;;7402771;19;20185;-76
2022/11/24 02:55:50;;;;;;;19.73;3.23;;;3.70;99.90;5.10;93357.00;;;;7401649;19;20188;-76
2022/11/24 02:58:17;;;;;;;8.43;2.00;;;4.00;99.90;4.90;93368.00;;;;7402971;19;20515;-77
2022/11/24 03:00:53;;;;;;;15.67;3.07;;;4.10;9.70;5.00;93347.00;;;;7402823;19;20210;-77
2022/11/24 03:03:20;;;;;;;14.10;2.87;;;4.20;1.00;5.20;93354.00;;;;7402371;19;20142;-76
2022/11/24 03:05:48;;;;;;;19.77;2.80;;;4.20;1.00;5.20;93339.00;;;;7400481;19;20141;-77
2022/11/24 03:08:21;;;;;;;14.47;2.90;;;4.20;1.00;5.00;93350.00;;;;7399226;19;20158;-76
2022/11/24 03:10:48;;;;;;;14.07;2.43;;;4.20;1.00;4.80;93372.00;;;;7402305;19;20125;-76
2022/11/24 03:13:16;;;;;;;15.10;3.43;;;4.20;1.00;4.90;93379.00;;;;7401860;19;20141;-75
2022/11/24 03:15:49;;;;;;;13.30;2.67;;;4.20;1.00;5.10;93343.00;;;;7401226;19;20604;-75
2022/11/24 03:18:16;;;;;;;13.60;2.47;;;4.30;99.90;5.10;93354.00;;;;7400454;19;20152;-78
2022/11/24 03:20:43;;;;;;;17.37;2.20;;;4.30;99.90;5.30;93359.00;;;;7400295;19;20154;-76
2022/11/24 03:23:31;;;;;;;9.57;2.47;;;4.40;99.90;5.40;93354.00;;;;7397794;19;20208;-77
2022/11/24 03:26:11;;;;;;;16.10;2.27;;;4.50;99.90;5.60;93373.00;;;;7399034;19;20151;-76
2022/11/24 03:28:45;;;;;;;15.93;2.27;;;4.60;99.90;5.60;93352.00;;;;7402097;19;20156;-76
2022/11/24 03:31:13;;;;;;;19.13;2.57;;;4.70;99.90;5.40;93357.00;;;;7401894;19;20128;-76
2022/11/24 03:33:40;;;;;;;10.20;2.10;;;4.70;99.90;5.40;93366.00;;;;7400613;19;20546;-76
2022/11/24 03:36:15;;;;;;;12.20;2.77;;;4.70;99.90;5.60;93375.00;;;;7400219;19;20200;-76
2022/11/24 03:38:42;;;;;;;12.43;2.30;;;4.70;25.50;5.70;93374.00;;;;7399325;19;20603;-77
2022/11/24 03:41:10;;;;;;;19.23;3.07;;;4.80;1.00;5.90;93373.00;;;;7399518;19;20140;-76
2022/11/24 03:43:43;;;;;;;19.37;3.10;;;4.90;1.00;5.80;93370.00;;;;7399656;19;20148;-76
2022/11/24 03:46:11;;;;;;;12.67;2.67;;;4.90;1.00;5.90;93367.00;;;;7400549;19;20204;-77
2022/11/24 03:48:38;;;;;;;8.43;2.33;;;5.00;1.00;5.70;93385.00;;;;7401687;19;20147;-77
2022/11/24 03:51:12;;;;;;;11.57;2.43;;;5.00;1.00;5.40;93365.00;;;;7400834;19;20135;-78
2022/11/24 03:53:39;;;;;;;13.83;2.90;;;4.90;1.00;5.50;93385.00;;;;7401298;19;20128;-77
2022/11/24 03:56:06;;;;;;;14.27;2.00;;;4.70;1.00;5.50;93371.00;;;;7399264;19;20143;-77
2022/11/24 03:58:40;;;;;;;17.47;3.03;;;4.70;12.70;5.60;93388.00;;;;7399794;19;20156;-76
2022/11/24 04:01:07;;;;;;;13.40;2.60;;;4.70;3.70;5.60;93388.00;;;;7400244;19;20132;-76
2022/11/24 04:03:35;;;;;;;11.07;2.47;;;4.70;1.00;5.40;93390.00;;;;7401161;19;20113;-75
2022/11/24 04:06:09;;;;;;;17.23;2.93;;;4.70;10.20;5.50;93401.00;;;;7397973;19;20164;-76
2022/11/24 04:08:36;;;;;;;17.47;3.00;;;4.70;7.70;5.50;93375.00;;;;7397160;19;20125;-77
2022/11/24 04:11:03;;;;;;;14.33;2.63;;;4.60;11.90;5.50;93389.00;;;;7398641;19;20128;-76
2022/11/24 04:13:36;;;;;;;9.90;2.47;;;4.60;20.00;5.40;93409.00;;;;7398205;19;20647;-76
2022/11/24 04:16:07;;;;;;;15.80;2.90;;;4.60;18.70;5.40;93387.00;;;;7398997;19;20612;-76
2022/11/24 04:18:34;;;;;;;16.50;2.80;;;4.60;9.90;5.10;93420.00;;;;7397984;19;20580;-76
2022/11/24 04:21:08;;;;;;;19.93;2.60;;;4.50;34.70;5.10;93392.00;;;;7398772;19;20141;-77
2022/11/24 04:23:48;;;;;;;12.40;3.00;;;4.40;99.90;5.30;93413.00;;;;7398280;19;20167;-76
2022/11/24 04:26:22;;;;;;;11.07;2.50;;;4.40;99.90;5.40;93414.00;;;;7398523;19;20125;-76
2022/11/24 04:28:49;;;;;;;17.97;3.43;;;4.50;99.90;5.40;93425.00;;;;7398168;19;20155;-76
2022/11/24 04:31:17;;;;;;;13.63;2.73;;;4.60;99.90;5.40;93416.00;;;;7398163;19;20141;-77
2022/11/24 04:33:50;;;;;;;14.97;2.47;;;4.60;99.90;5.50;93412.00;;;;7399431;19;20594;-76
2022/11/24 04:36:17;;;;;;;12.23;2.60;;;4.60;99.90;5.20;93432.00;;;;7400361;19;20129;-76
2022/11/24 04:38:44;;;;;;;14.80;3.20;;;4.60;99.90;5.20;93423.00;;;;7398473;19;20141;-76
2022/11/24 04:41:38;;;;;;;18.87;3.40;;;4.50;99.90;5.50;93434.00;;;;7399376;19;20124;-75
2022/11/24 04:44:11;;;;;;;12.30;2.67;;;4.50;99.90;5.50;93438.00;;;;7398009;19;20141;-77
2022/11/24 04:46:45;;;;;;;17.57;2.60;;;4.60;99.90;5.40;93418.00;;;;7396739;19;20148;-75
2022/11/24 04:49:13;;;;;;;13.93;2.80;;;4.60;99.90;5.30;93428.00;;;;7398281;19;20145;-76
2022/11/24 04:51:41;;;;;;;14.60;2.40;;;4.60;96.80;5.10;93445.00;;;;7397913;19;20148;-76
2022/11/24 04:54:15;;;;;;;11.87;2.60;;;4.60;86.40;4.90;93426.00;;;;7397434;19;20132;-76
2022/11/24 04:56:43;;;;;;;9.37;2.37;;;4.40;99.90;5.00;93430.00;;;;7397576;19;20547;-76
2022/11/24 04:59:14;;;;;;;17.30;2.70;;;4.40;99.90;4.90;93422.00;;;;7397789;19;20141;-75
2022/11/24 05:01:47;;;;;;;9.33;1.87;;;4.30;99.90;4.50;93432.00;;;;7397070;19;20161;-76
2022/11/24 05:04:22;;;;;;;14.13;2.47;;;4.10;99.90;4.30;93435.00;;;;7397280;19;20140;-75
2022/11/24 05:06:58;;;;;;;11.80;2.20;;;3.90;1.00;4.30;93432.00;;;;7396270;19;20140;-76
2022/11/24 05:09:25;;;;;;;16.43;2.23;;;3.80;1.00;4.20;93444.00;;;;7395596;19;20140;-75
2022/11/24 05:12:12;;;;;;;9.67;2.27;;;3.70;1.00;4.30;93449.00;;;;7398373;19;20136;-77
2022/11/24 05:14:46;;;;;;;11.43;2.63;;;3.70;81.00;4.30;93450.00;;;;7397692;19;20456;-78
2022/11/24 05:17:14;;;;;;;11.50;2.37;;;3.70;99.90;4.30;93445.00;;;;7397548;19;20505;-76
2022/11/24 05:19:41;;;;;;;15.07;2.53;;;3.70;99.90;4.50;93443.00;;;;7397372;19;20477;-76
2022/11/24 05:22:27;;;;;;;12.83;2.80;;;3.70;99.90;4.90;93447.00;;;;7396544;19;20241;-76
2022/11/24 05:25:02;;;;;;;16.90;2.90;;;3.90;99.90;5.00;93444.00;;;;7397084;19;20149;-76
2022/11/24 05:27:36;;;;;;;21.60;2.90;;;4.00;99.90;5.00;93455.00;;;;7396608;19;20152;-76
2022/11/24 05:30:04;;;;;;;13.20;2.80;;;4.10;99.90;5.00;93452.00;;;;7398504;19;20196;-76
2022/11/24 05:32:31;;;;;;;20.27;3.17;;;4.10;1.00;5.20;93446.00;;;;7398209;19;20138;-77
2022/11/24 05:35:06;;;;;;;11.97;2.70;;;4.20;1.00;5.40;93442.00;;;;7397426;19;20141;-78
2022/11/24 05:37:34;;;;;;;11.37;2.83;;;4.30;1.00;5.40;93451.00;;;;7397706;19;20188;-76
2022/11/24 05:40:02;;;;;;;8.20;2.17;;;4.40;1.00;5.30;93462.00;;;;7397199;19;20143;-76
2022/11/24 05:42:41;;;;;;;19.43;3.07;;;4.50;1.00;5.40;93444.00;;;;7396989;19;20145;-79
2022/11/24 05:45:20;;;;;;;10.23;2.60;;;4.50;1.00;5.60;93457.00;;;;7399682;19;20153;-78
2022/11/24 05:47:54;;;;;;;10.80;3.23;;;4.60;99.90;5.80;93463.00;;;;7402186;19;20483;-77
2022/11/24 05:50:22;;;;;;;9.80;2.30;;;4.80;99.90;5.90;93470.00;;;;7406647;19;20129;-77
2022/11/24 05:52:49;;;;;;;19.43;2.63;;;4.90;99.90;5.50;93453.00;;;;7405198;19;20169;-78
2022/11/24 05:55:22;;;;;;;10.73;2.10;;;4.80;90.70;5.20;93458.00;;;;7405307;19;20145;-79
2022/11/24 05:58:01;;;;;;;13.87;2.53;;;4.80;99.90;5.30;93441.00;;;;7407938;19;20125;-78
2022/11/24 06:00:36;;;;;;;10.30;2.47;;;4.60;99.90;5.50;93463.00;;;;7406636;19;20468;-79
2022/11/24 06:03:03;;;;;;;14.90;2.53;;;4.70;99.90;5.40;93455.00;;;;7411195;19;20136;-79
2022/11/24 06:05:31;;;;;;;12.23;2.30;;;4.60;99.90;5.30;93456.00;;;;7410640;19;20222;-79
2022/11/24 06:08:05;;;;;;;11.57;2.27;;;4.60;99.90;5.30;93436.00;;;;7402559;19;20607;-79
2022/11/24 06:10:32;;;;;;;15.53;2.87;;;4.60;99.90;5.50;93467.00;;;;7409534;19;20144;-80
2022/11/24 06:13:05;;;;;;;8.77;2.60;;;4.70;99.90;5.60;93471.00;;;;7408152;19;20180;-78
2022/11/24 06:15:40;;;;;;;12.27;2.37;;;4.80;99.90;5.80;93451.00;;;;7403461;19;20140;-77
2022/11/24 06:18:08;;;;;;;8.37;2.23;;;4.90;99.90;5.60;93485.00;;;;7406073;19;20572;-79
2022/11/24 06:20:35;;;;;;;13.27;2.10;;;4.90;99.90;5.80;93476.00;;;;7403119;19;20216;-77
2022/11/24 06:23:35;;;;;;;14.27;3.03;;;5.00;99.90;5.70;93477.00;;;;7402259;19;20170;-76
2022/11/24 06:26:03;;;;;;;12.13;3.43;;;5.10;99.90;5.50;93488.00;;;;7401671;19;20151;-76
2022/11/24 06:28:36;;;;;;;11.30;2.70;;;5.00;99.90;5.40;93483.00;;;;7401121;19;20169;-77
2022/11/24 06:31:05;;;;;;;12.07;2.70;;;5.00;1.00;5.20;93502.00;;;;7400597;19;20173;-76
2022/11/24 06:33:35;;;;;;;14.40;2.37;;;;;5.30;93496.00;;;;7403184;19;20125;-76
2022/11/24 06:36:12;;;;;;;18.23;2.40;;;4.80;99.90;5.10;93520.00;;;;7400889;19;20135;-77
2022/11/24 06:38:40;;;;;;;8.77;2.33;;;4.70;1.00;5.00;93498.00;;;;7401427;19;20148;-76
2022/11/24 06:41:12;;;;;;;13.13;2.50;;;4.70;1.00;5.00;93513.00;;;;7402364;19;20144;-76
2022/11/24 06:43:46;;;;;;;8.37;1.73;;;4.70;70.20;5.00;93499.00;;;;7402717;19;20152;-79
2022/11/24 06:46:14;;;;;;;9.70;1.87;;;4.60;1.00;4.90;93527.00;;;;7401757;19;20136;-78
2022/11/24 06:48:41;;;;;;;6.43;1.70;;;4.60;1.00;5.00;93524.00;;;;7401136;19;20133;-77
2022/11/24 06:51:14;;;;;;;12.97;2.37;;;4.60;1.00;4.90;93522.00;;;;7400473;19;20184;-76
2022/11/24 06:53:42;;;;;;;10.37;1.77;;;4.60;1.00;4.70;93548.00;;;;7401169;19;20915;-78
2022/11/24 06:56:12;;;;;;;6.00;1.40;;;4.50;36.00;4.80;93544.00;;;;7400364;19;20165;-79
2022/11/24 06:58:50;;;;;;;10.30;2.50;;;4.50;99.90;4.90;93542.00;;;;7401742;19;20144;-78
2022/11/24 07:01:27;;;;;;;11.37;2.00;;;4.50;99.90;4.80;93563.00;;;;7400753;19;20133;-77
2022/11/24 07:04:07;;;;;;;5.43;1.30;;;4.40;99.90;5.10;93550.00;;;;7401660;19;20121;-77
2022/11/24 07:06:34;;;;;;;4.87;1.03;;;4.40;99.90;4.70;93569.00;;;;7401490;19;20136;-77
2022/11/24 07:09:11;;;;;;;4.13;1.03;;;4.40;99.90;4.80;93575.00;;;;7400335;19;20169;-77
2022/11/24 07:11:39;;;;;;;4.07;0.93;;;4.40;99.90;4.70;93536.00;;;;7400021;19;20161;-78
2022/11/24 07:14:07;;;;;;;4.20;0.90;;;4.40;14.30;4.70;93554.00;;;;7399934;19;20200;-77
2022/11/24 07:16:42;;;;;;;2.07;0.70;;;4.30;1.00;4.50;93571.00;;;;7400093;19;20135;-76
2022/11/24 07:19:09;;;;;;;3.37;0.60;;;4.20;62.70;4.40;93570.00;;;;7401517;19;20137;-77
2022/11/24 07:21:37;;;;;;;2.20;0.90;;;4.20;99.90;4.40;93578.00;;;;7400825;19;20132;-77
2022/11/24 07:24:17;;;;;;;2.37;0.50;;;4.20;99.90;4.50;93593.00;;;;7399781;19;20149;-76
2022/11/24 07:26:51;;;;;;;1.93;0.60;;;4.10;99.90;4.50;93579.00;;;;7398877;19;20148;-77
2022/11/24 07:29:24;;;;;;;2.90;0.63;;;4.10;99.90;4.30;93602.00;;;;7400566;19;20132;-78
2022/11/24 07:31:51;;;;;;;2.20;0.70;;;4.00;99.90;4.40;93618.00;;;;7400395;19;20615;-79
2022/11/24 07:34:19;;;;;;;0.70;0.47;;;4.00;99.90;4.20;93608.00;;;;7401720;19;20125;-77
2022/11/24 07:37:06;;;;;;;0.60;0.30;;;4.00;99.90;4.20;93626.00;;;;7401179;19;20156;-77
2022/11/24 07:39:36;;;;;;;1.73;0.43;;;3.90;99.90;4.10;93588.00;;;;7400182;19;20149;-76
2022/11/24 07:42:10;;;;;;;2.33;0.73;;;3.80;99.90;4.00;93602.00;;;;7399967;19;20125;-76
2022/11/24 07:44:39;;;;;;;1.53;0.50;;;3.80;99.90;4.00;93588.00;;;;7399657;19;20129;-78
2022/11/24 07:47:06;;;;;;;1.00;0.30;;;3.80;99.90;4.00;93608.00;;;;7399132;19;20129;-78
2022/11/24 07:49:40;;;;;;;1.43;0.20;;;3.70;99.90;3.90;93583.00;;;;7400277;19;20206;-77
2022/11/24 07:52:08;;;;;;;0.40;0.20;;;3.70;48.80;3.90;93592.00;;;;7396936;19;20136;-78
2022/11/24 07:54:35;;;;;;;0.53;0.23;;;3.70;1.00;3.90;93585.00;;;;7399108;19;20141;-76
2022/11/24 07:57:10;;;;;;;1.17;0.20;;;3.60;50.00;4.00;93564.00;;;;7399026;19;20131;-77
2022/11/24 07:59:37;;;;;;;0.80;0.30;;;3.60;99.90;4.00;93470.00;;;;7399268;19;20143;-77
2022/11/24 08:02:04;;;;;;;0.40;0.20;;;3.60;37.50;4.10;93538.00;;;;7399487;19;20125;-77
2022/11/24 08:04:39;;;;;;;0.40;0.30;;;3.50;99.90;3.90;93615.00;;;;7399349;19;20515;-77
2022/11/24 08:07:06;;;;;;;0.83;0.13;;;3.50;99.90;3.90;93626.00;;;;7398730;19;20131;-77
2022/11/24 08:09:33;;;;;;;0.17;0.07;;;3.60;99.90;3.90;93602.00;;;;7396603;19;20659;-76
2022/11/24 08:12:06;;;;;;;1.67;0.30;;;3.50;99.90;3.90;93611.00;;;;7398208;19;20136;-76
2022/11/24 08:14:37;;;;;;;0.33;0.20;;;3.50;99.90;4.00;93609.00;;;;7396479;19;20141;-77
2022/11/24 08:17:04;;;;;;;1.03;0.10;;;3.50;99.90;3.90;93624.00;;;;7398603;19;20204;-76
2022/11/24 08:19:38;;;;;;;0.03;0.00;;;3.50;99.90;4.10;93625.00;;;;7399969;19;20208;-77
2022/11/24 08:22:05;;;;;;;0.90;0.27;;;3.50;99.90;4.10;93613.00;;;;7397908;19;20133;-77
2022/11/24 08:24:32;;;;;;;0.93;0.00;;;3.50;99.90;4.20;93614.00;;;;7396897;19;20915;-76
2022/11/24 08:27:05;;;;;;;0.93;0.30;;;3.50;99.90;4.10;93612.00;;;;7397073;19;20133;-77
2022/11/24 08:29:33;;;;;;;0.27;0.10;;;3.50;99.90;4.10;93619.00;;;;7398485;19;20595;-79
2022/11/24 08:32:00;;;;;;;0.53;0.20;;;3.50;99.90;4.30;93625.00;;;;7396817;19;20129;-79
2022/11/24 08:34:34;;;;;;;1.73;0.10;;;3.50;99.90;4.30;93624.00;;;;7398409;19;20147;-79
2022/11/24 08:37:05;;;;;;;0.73;0.20;;;3.60;99.90;4.30;93611.00;;;;7397737;19;20129;-78
2022/11/24 08:39:33;;;;;;;0.87;0.10;;;3.70;99.90;4.30;93589.00;;;;7396847;19;20734;-79
2022/11/24 08:42:06;;;;;;;0.30;0.30;;;3.70;99.90;4.90;93618.00;;;;7397248;19;20141;-78
2022/11/24 08:44:33;;;;;;;0.10;0.10;;;4.00;99.90;5.10;93601.00;;;;7397008;19;20132;-79
2022/11/24 08:47:01;;;;;;;0.33;0.20;;;4.10;99.90;5.90;93634.00;;;;7398304;19;20129;-79
2022/11/24 08:49:34;;;;;;;0.17;0.17;;;4.50;99.90;6.10;93614.00;;;;7398884;19;20129;-79
2022/11/24 08:52:01;;;;;;;0.47;0.20;;;4.90;99.90;6.90;93623.00;;;;7396994;19;20200;-79
2022/11/24 08:54:30;;;;;;;1.33;0.20;;;5.40;1.00;7.80;93623.00;;;;7399680;19;20145;-80
2022/11/24 08:57:03;;;;;;;1.03;0.23;;;5.90;99.90;7.50;93635.00;;;;7396456;19;20124;-79
2022/11/24 08:59:30;;;;;;;0.23;0.10;;;5.90;1.00;6.90;93633.00;;;;7397498;19;20156;-79
2022/11/24 09:01:57;;;;;;;0.23;0.20;;;5.80;1.00;6.50;93647.00;;;;7396726;19;20212;-78
2022/11/24 09:04:31;;;;;;;0.30;0.17;;;5.60;1.00;6.30;93652.00;;;;7397119;19;20133;-78
2022/11/24 09:06:59;;;;;;;0.10;0.00;;;5.40;1.00;5.80;93639.00;;;;7395515;19;20140;-78
2022/11/24 09:09:26;;;;;;;0.80;0.30;;;5.30;1.00;5.10;93651.00;;;;7395502;19;20197;-79
2022/11/24 09:12:00;;;;;;;0.40;0.30;;;5.10;1.00;5.10;93648.00;;;;7396884;19;20129;-77
2022/11/24 09:14:27;;;;;;;0.10;0.10;;;4.80;1.00;4.90;93657.00;;;;7396658;19;20493;-78
2022/11/24 09:16:55;;;;;;;0.70;0.30;;;4.70;99.90;5.30;93650.00;;;;7398184;19;20125;-77
2022/11/24 09:19:28;;;;;;;1.37;0.30;;;4.70;99.90;5.30;93660.00;;;;7398294;19;20188;-77
2022/11/24 09:21:55;;;;;;;0.93;0.40;;;4.70;1.00;5.60;93657.00;;;;7402589;19;20480;-78
2022/11/24 09:24:22;;;;;;;0.60;0.43;;;4.80;1.00;5.90;93657.00;;;;7400884;19;20648;-79
2022/11/24 09:26:56;;;;;;;0.50;0.20;;;4.90;1.00;5.80;93654.00;;;;7404803;19;20467;-77
2022/11/24 09:29:27;;;;;;;0.97;0.50;;;5.00;50.90;5.80;93636.00;;;;7405498;19;20139;-79
2022/11/24 09:31:54;;;;;;;0.80;0.70;;;5.10;1.00;5.60;93670.00;;;;7403623;19;20580;-78
2022/11/24 09:34:33;;;;;;;1.40;0.57;;;5.10;1.00;5.50;93693.00;;;;7405452;19;20233;-77
2022/11/24 09:37:00;;;;;;;1.20;0.80;;;5.00;1.00;5.80;93677.00;;;;7405593;19;20147;-77
2022/11/24 09:39:27;;;;;;;1.10;0.60;;;5.00;1.00;5.80;93686.00;;;;7404045;19;20137;-77
2022/11/24 09:43:01;;;;;;;1.57;0.93;;;4.90;1.00;5.80;93708.00;;;;7405391;19;20646;-79
2022/11/24 09:45:52;;;;;;;1.20;0.60;;;5.00;1.00;5.70;93700.00;;;;7402841;19;20208;-79
2022/11/24 09:48:40;;;;;;;0.63;0.50;;;5.00;1.00;6.20;93690.00;;;;7410853;19;20137;-80
2022/11/24 09:51:24;;;;;;;2.43;0.77;;;5.30;1.00;6.30;93708.00;;;;7414336;19;20603;-80
2022/11/24 09:54:14;;;;;;;1.73;0.63;;;5.50;1.00;7.10;93705.00;;;;7421552;19;20141;-80
2022/11/24 09:56:43;;;;;;;1.07;0.57;;;5.90;1.00;6.90;93706.00;;;;7417558;19;20137;-80
2022/11/24 09:59:25;;;;;;;3.37;0.70;;;5.90;99.90;6.30;93730.00;;;;7415882;19;20144;-79
2022/11/24 10:01:55;;;;;;;3.00;0.80;;;5.80;99.90;6.30;93724.00;;;;7416939;19;20591;-81
2022/11/24 10:04:56;;;;;;;4.17;0.73;;;5.70;99.90;6.10;93672.00;;;;7404521;19;20196;-79
2022/11/24 10:07:36;;;;;;;4.50;0.90;;;5.60;99.90;5.90;93576.00;;;;7405323;19;20148;-79
2022/11/24 10:10:26;;;;;;;2.17;0.90;;;5.50;99.90;6.20;93710.00;;;;7401339;19;20140;-77
2022/11/24 10:13:25;;;;;;;2.33;0.97;;;5.40;99.90;6.40;93729.00;;;;7405209;19;20584;-77
2022/11/24 10:16:14;;;;;;;4.73;1.73;;;5.70;1.00;7.20;93701.00;;;;7405957;19;20467;-80
2022/11/24 10:19:13;;;;;;;6.03;1.30;;;6.10;1.00;7.80;93709.00;;;;7404176;19;20140;-79
2022/11/24 10:22:14;;;;;;;3.87;0.90;;;6.60;1.00;8.20;93705.00;;;;7404633;19;20121;-79
2022/11/24 10:25:12;;;;;;;3.80;1.00;;;7.20;99.90;7.60;93711.00;;;;7402664;19;20511;-78
2022/11/24 10:27:54;;;;;;;7.57;1.33;;;7.10;1.00;7.40;93722.00;;;;7401576;19;20147;-79
2022/11/24 10:30:22;;;;;;;5.97;1.73;;;7.00;1.00;7.80;93676.00;;;;7404316;19;20128;-80
2022/11/24 10:33:11;;;;;;;7.93;1.80;;;6.80;1.00;8.40;93716.00;;;;7406628;19;20136;-80
2022/11/24 10:35:54;;;;;;;6.43;1.50;;;7.20;1.00;8.30;93718.00;;;;7404133;19;20139;-79
2022/11/24 10:38:41;;;;;;;6.10;1.63;;;7.30;1.00;8.20;93692.00;;;;7404476;19;20121;-80
2022/11/24 10:41:45;;;;;;;6.70;1.93;;;7.40;1.00;8.90;93694.00;;;;7400817;19;20165;-78
2022/11/24 10:44:19;;;;;;;4.05;1.63;;;7.90;99.90;9.00;93706.00;;;;7401716;19;20584;-78
2022/11/24 10:46:47;;;;;;;5.18;1.50;;;8.60;99.20;9.30;93722.00;;;;7401528;19;20161;-78
2022/11/24 10:49:28;;;;;;;7.53;2.47;;;8.90;99.90;9.10;93687.00;;;;7399629;19;20132;-78
2022/11/24 10:52:10;;;;;;;5.07;1.65;;;8.80;99.90;9.20;93697.00;;;;7401524;19;20664;-79
2022/11/24 10:54:54;;;;;;;4.85;1.73;;;8.80;99.90;8.00;93724.00;;;;7401109;19;20152;-79
2022/11/24 10:57:37;;;;;;;5.85;2.10;;;8.60;99.90;8.40;93710.00;;;;7402176;19;20157;-78
2022/11/24 11:00:24;;;;;;;6.95;1.55;;;8.20;99.90;9.00;93692.00;;;;7400441;19;20165;-77
2022/11/24 11:03:46;;;;;;;7.63;1.92;;;8.20;99.90;9.20;93700.00;;;;7401268;19;20605;-78
2022/11/24 11:06:29;;;;;;;7.25;2.40;;;8.60;99.90;10.10;93690.00;;;;7396929;19;20172;-79
2022/11/24 11:09:24;;;;;;;11.20;2.28;;;8.80;99.90;9.90;93691.00;;;;7398654;19;20200;-79
2022/11/24 11:11:52;;;;;;;5.47;1.65;;;9.00;1.00;9.10;93696.00;;;;7398600;19;20165;-78
2022/11/24 11:14:47;;;;;;;6.72;1.88;;;8.60;1.00;8.70;93714.00;;;;7400377;19;20475;-78
2022/11/24 11:17:35;;;;;;;7.35;2.00;;;8.10;99.90;8.20;93710.00;;;;7402195;19;20129;-79
2022/11/24 11:20:26;;;;;;;7.18;1.88;;;8.10;99.90;8.20;93711.00;;;;7401627;19;20157;-78
2022/11/24 11:22:56;;;;;;;8.68;1.90;;;7.60;99.90;8.60;93701.00;;;;7402693;19;20472;-79
2022/11/24 11:25:34;;;;;;;7.60;2.15;;;7.90;99.90;8.50;93721.00;;;;7401656;19;20468;-78
2022/11/24 11:28:18;;;;;;;8.53;2.00;;;8.10;99.90;9.20;93717.00;;;;7400148;19;20180;-78
2022/11/24 11:31:02;;;;;;;7.35;2.13;;;8.50;99.90;9.40;93720.00;;;;7399292;19;20144;-79
2022/11/24 11:34:08;;;;;;;12.90;2.50;;;9.00;1.00;10.70;93717.00;;;;7400501;19;20129;-78
2022/11/24 11:37:03;;;;;;;4.95;1.60;;;9.00;1.00;10.00;93730.00;;;;7400665;19;20207;-78
2022/11/24 11:39:40;;;;;;;7.68;1.90;;;;;10.20;93721.00;;;;7399359;19;20157;-78
2022/11/24 11:42:40;;;;;;;5.53;1.30;;;;;10.60;93724.00;;;;7398684;19;20199;-78